sensor_id;sensor_type;location;lat;lon;timestamp;pressure;altitude;pressure_sealevel;temperature;humidity
79242;BME280;68670;48.720;9.118;2024-01-30T00:00:12;98185.72;;;0.72;92.06
79242;BME280;68670;48.720;9.118;2024-01-30T00:02:37;98184.78;;;0.63;93.01
79242;BME280;68670;48.720;9.118;2024-01-30T00:05:03;98178.00;;;0.59;93.81
79242;BME280;68670;48.720;9.118;2024-01-30T00:07:28;98179.41;;;0.63;94.32
79242;BME280;68670;48.720;9.118;2024-01-30T00:09:54;98178.78;;;0.70;94.51
79242;BME280;68670;48.720;9.118;2024-01-30T00:12:21;98174.78;;;0.74;93.37
79242;BME280;68670;48.720;9.118;2024-01-30T00:14:47;98177.38;;;0.65;93.05
79242;BME280;68670;48.720;9.118;2024-01-30T00:17:12;98181.25;;;0.63;93.18
79242;BME280;68670;48.720;9.118;2024-01-30T00:19:37;98188.16;;;0.65;93.11
79242;BME280;68670;48.720;9.118;2024-01-30T00:22:03;98179.84;;;0.59;93.60
79242;BME280;68670;48.720;9.118;2024-01-30T00:24:28;98188.16;;;0.65;93.47
79242;BME280;68670;48.720;9.118;2024-01-30T00:26:53;98174.00;;;0.63;93.20
79242;BME280;68670;48.720;9.118;2024-01-30T00:29:19;98185.38;;;0.57;94.12
79242;BME280;68670;48.720;9.118;2024-01-30T00:31:45;98183.22;;;0.61;93.81
79242;BME280;68670;48.720;9.118;2024-01-30T00:34:10;98185.53;;;0.56;93.87
79242;BME280;68670;48.720;9.118;2024-01-30T00:36:36;98178.28;;;0.56;94.66
79242;BME280;68670;48.720;9.118;2024-01-30T00:39:02;98185.78;;;0.62;93.91
79242;BME280;68670;48.720;9.118;2024-01-30T00:41:33;98171.78;;;0.77;94.23
79242;BME280;68670;48.720;9.118;2024-01-30T00:43:59;98177.19;;;0.77;93.81
79242;BME280;68670;48.720;9.118;2024-01-30T00:46:27;98175.28;;;0.87;93.55
79242;BME280;68670;48.720;9.118;2024-01-30T00:48:52;98173.84;;;0.92;93.43
79242;BME280;68670;48.720;9.118;2024-01-30T00:51:17;98172.28;;;0.90;93.24
79242;BME280;68670;48.720;9.118;2024-01-30T00:53:43;98180.88;;;0.76;93.47
79242;BME280;68670;48.720;9.118;2024-01-30T00:56:08;98178.56;;;0.81;94.16
79242;BME280;68670;48.720;9.118;2024-01-30T00:58:34;98184.09;;;0.61;93.08
79242;BME280;68670;48.720;9.118;2024-01-30T01:01:02;98184.94;;;0.62;94.18
79242;BME280;68670;48.720;9.118;2024-01-30T01:03:30;98177.38;;;0.65;93.72
79242;BME280;68670;48.720;9.118;2024-01-30T01:05:55;98174.47;;;0.77;93.70
79242;BME280;68670;48.720;9.118;2024-01-30T01:08:20;98185.22;;;0.86;93.24
79242;BME280;68670;48.720;9.118;2024-01-30T01:10:48;98175.84;;;0.90;93.54
79242;BME280;68670;48.720;9.118;2024-01-30T01:13:13;98182.69;;;0.85;94.21
79242;BME280;68670;48.720;9.118;2024-01-30T01:15:39;98171.28;;;0.91;93.66
79242;BME280;68670;48.720;9.118;2024-01-30T01:18:04;98186.06;;;0.87;93.68
79242;BME280;68670;48.720;9.118;2024-01-30T01:20:32;98181.97;;;0.83;93.59
79242;BME280;68670;48.720;9.118;2024-01-30T01:22:57;98182.38;;;0.88;93.68
79242;BME280;68670;48.720;9.118;2024-01-30T01:25:22;98176.69;;;0.91;93.43
79242;BME280;68670;48.720;9.118;2024-01-30T01:27:48;98180.06;;;0.93;93.83
79242;BME280;68670;48.720;9.118;2024-01-30T01:30:17;98175.28;;;0.87;94.88
79242;BME280;68670;48.720;9.118;2024-01-30T01:32:47;98181.78;;;0.94;93.95
79242;BME280;68670;48.720;9.118;2024-01-30T01:35:19;98179.69;;;0.88;94.34
79242;BME280;68670;48.720;9.118;2024-01-30T01:37:47;98178.97;;;0.86;94.27
79242;BME280;68670;48.720;9.118;2024-01-30T01:40:22;98178.69;;;0.89;94.28
79242;BME280;68670;48.720;9.118;2024-01-30T01:42:52;98173.38;;;0.97;94.29
79242;BME280;68670;48.720;9.118;2024-01-30T01:45:20;98175.22;;;0.96;93.94
79242;BME280;68670;48.720;9.118;2024-01-30T01:47:51;98179.28;;;1.00;94.50
79242;BME280;68670;48.720;9.118;2024-01-30T01:50:18;98178.38;;;0.92;93.48
79242;BME280;68670;48.720;9.118;2024-01-30T01:52:44;98183.38;;;0.87;93.56
79242;BME280;68670;48.720;9.118;2024-01-30T01:55:11;98177.31;;;0.75;93.98
79242;BME280;68670;48.720;9.118;2024-01-30T01:57:39;98180.75;;;0.67;94.14
79242;BME280;68670;48.720;9.118;2024-01-30T02:00:06;98180.47;;;0.71;94.70
79242;BME280;68670;48.720;9.118;2024-01-30T02:02:36;98173.53;;;0.68;94.63
79242;BME280;68670;48.720;9.118;2024-01-30T02:05:01;98164.94;;;0.55;95.47
79242;BME280;68670;48.720;9.118;2024-01-30T02:07:27;98172.34;;;0.53;95.01
79242;BME280;68670;48.720;9.118;2024-01-30T02:09:55;98183.38;;;0.59;95.26
79242;BME280;68670;48.720;9.118;2024-01-30T02:12:23;98180.28;;;0.54;95.58
79242;BME280;68670;48.720;9.118;2024-01-30T02:14:48;98179.72;;;0.51;96.50
79242;BME280;68670;48.720;9.118;2024-01-30T02:17:17;98180.16;;;0.46;95.12
79242;BME280;68670;48.720;9.118;2024-01-30T02:19:45;98184.44;;;0.39;95.14
79242;BME280;68670;48.720;9.118;2024-01-30T02:22:11;98183.03;;;0.35;96.00
79242;BME280;68670;48.720;9.118;2024-01-30T02:24:36;98192.13;;;0.34;95.45
79242;BME280;68670;48.720;9.118;2024-01-30T02:27:01;98183.44;;;0.40;95.26
79242;BME280;68670;48.720;9.118;2024-01-30T02:29:27;98194.56;;;0.27;96.38
79242;BME280;68670;48.720;9.118;2024-01-30T02:31:52;98190.91;;;0.19;96.16
79242;BME280;68670;48.720;9.118;2024-01-30T02:34:18;98195.13;;;0.31;96.59
79242;BME280;68670;48.720;9.118;2024-01-30T02:36:44;98189.91;;;0.20;96.16
79242;BME280;68670;48.720;9.118;2024-01-30T02:39:10;98184.78;;;0.26;97.48
79242;BME280;68670;48.720;9.118;2024-01-30T02:41:36;98188.34;;;0.27;97.21
79242;BME280;68670;48.720;9.118;2024-01-30T02:44:02;98189.91;;;0.20;96.82
79242;BME280;68670;48.720;9.118;2024-01-30T02:46:28;98191.31;;;0.24;97.46
79242;BME280;68670;48.720;9.118;2024-01-30T02:48:53;98192.72;;;0.28;96.83
79242;BME280;68670;48.720;9.118;2024-01-30T02:51:18;98184.94;;;0.25;97.36
79242;BME280;68670;48.720;9.118;2024-01-30T02:53:46;98181.94;;;0.28;97.64
79242;BME280;68670;48.720;9.118;2024-01-30T02:56:14;98183.09;;;0.25;97.16
79242;BME280;68670;48.720;9.118;2024-01-30T02:58:42;98179.53;;;0.25;96.81
79242;BME280;68670;48.720;9.118;2024-01-30T03:01:07;98191.47;;;0.22;97.54
79242;BME280;68670;48.720;9.118;2024-01-30T03:03:33;98186.66;;;0.16;97.15
79242;BME280;68670;48.720;9.118;2024-01-30T03:06:01;98187.78;;;0.14;97.85
79242;BME280;68670;48.720;9.118;2024-01-30T03:08:28;98182.13;;;0.07;97.80
79242;BME280;68670;48.720;9.118;2024-01-30T03:10:53;98180.72;;;0.13;97.40
79242;BME280;68670;48.720;9.118;2024-01-30T03:13:19;98179.59;;;0.06;97.80
79242;BME280;68670;48.720;9.118;2024-01-30T03:15:44;98182.97;;;0.08;98.11
79242;BME280;68670;48.720;9.118;2024-01-30T03:18:10;98181.56;;;0.04;97.72
79242;BME280;68670;48.720;9.118;2024-01-30T03:20:35;98180.47;;;-0.04;97.19
79242;BME280;68670;48.720;9.118;2024-01-30T03:23:00;98185.00;;;-0.04;97.32
79242;BME280;68670;48.720;9.118;2024-01-30T03:25:26;98178.19;;;0.02;97.29
79242;BME280;68670;48.720;9.118;2024-01-30T03:27:51;98184.56;;;0.00;97.67
79242;BME280;68670;48.720;9.118;2024-01-30T03:30:21;98178.50;;;-0.02;97.70
79242;BME280;68670;48.720;9.118;2024-01-30T03:32:51;98181.56;;;0.04;97.27
79242;BME280;68670;48.720;9.118;2024-01-30T03:35:18;98184.41;;;0.02;96.40
79242;BME280;68670;48.720;9.118;2024-01-30T03:37:44;98185.59;;;-0.01;95.99
79242;BME280;68670;48.720;9.118;2024-01-30T03:40:09;98184.44;;;-0.08;95.99
79242;BME280;68670;48.720;9.118;2024-01-30T03:42:37;98184.88;;;-0.22;96.53
79242;BME280;68670;48.720;9.118;2024-01-30T03:45:04;98187.59;;;-0.22;96.09
79242;BME280;68670;48.720;9.118;2024-01-30T03:47:30;98181.09;;;-0.48;96.82
79242;BME280;68670;48.720;9.118;2024-01-30T03:49:55;98183.06;;;-0.60;97.55
79242;BME280;68670;48.720;9.118;2024-01-30T03:52:20;98196.25;;;-0.66;98.10
79242;BME280;68670;48.720;9.118;2024-01-30T03:54:46;98179.97;;;-0.65;98.34
79242;BME280;68670;48.720;9.118;2024-01-30T03:57:11;98200.34;;;-0.82;98.83
79242;BME280;68670;48.720;9.118;2024-01-30T03:59:37;98190.44;;;-0.72;99.38
79242;BME280;68670;48.720;9.118;2024-01-30T04:02:03;98190.03;;;-0.67;100.00
79242;BME280;68670;48.720;9.118;2024-01-30T04:04:28;98179.13;;;-0.65;100.00
79242;BME280;68670;48.720;9.118;2024-01-30T04:06:54;98180.25;;;-0.58;100.00
79242;BME280;68670;48.720;9.118;2024-01-30T04:09:19;98188.19;;;-0.47;100.00
79242;BME280;68670;48.720;9.118;2024-01-30T04:11:44;98182.53;;;-0.44;99.66
79242;BME280;68670;48.720;9.118;2024-01-30T04:14:10;98189.88;;;-0.46;99.96
79242;BME280;68670;48.720;9.118;2024-01-30T04:16:35;98193.56;;;-0.38;99.02
79242;BME280;68670;48.720;9.118;2024-01-30T04:19:03;98194.66;;;-0.30;97.78
79242;BME280;68670;48.720;9.118;2024-01-30T04:21:31;98189.03;;;-0.37;98.29
79242;BME280;68670;48.720;9.118;2024-01-30T04:23:58;98185.91;;;-0.61;98.88
79242;BME280;68670;48.720;9.118;2024-01-30T04:26:28;98179.28;;;-0.67;99.08
79242;BME280;68670;48.720;9.118;2024-01-30T04:28:56;98190.72;;;-0.75;99.52
79242;BME280;68670;48.720;9.118;2024-01-30T04:31:23;98189.31;;;-0.79;100.00
79242;BME280;68670;48.720;9.118;2024-01-30T04:33:49;98173.91;;;-0.67;100.00
79242;BME280;68670;48.720;9.118;2024-01-30T04:36:14;98175.41;;;-0.64;100.00
79242;BME280;68670;48.720;9.118;2024-01-30T04:38:39;98173.03;;;-0.68;100.00
79242;BME280;68670;48.720;9.118;2024-01-30T04:41:05;98173.59;;;-0.74;100.00
79242;BME280;68670;48.720;9.118;2024-01-30T04:43:30;98175.75;;;-0.68;100.00
79242;BME280;68670;48.720;9.118;2024-01-30T04:45:56;98178.13;;;-0.64;100.00
79242;BME280;68670;48.720;9.118;2024-01-30T04:48:23;98181.94;;;-0.77;100.00
79242;BME280;68670;48.720;9.118;2024-01-30T04:50:48;98185.34;;;-0.75;100.00
79242;BME280;68670;48.720;9.118;2024-01-30T04:53:14;98185.63;;;-0.78;100.00
79242;BME280;68670;48.720;9.118;2024-01-30T04:55:41;98187.59;;;-0.80;100.00
79242;BME280;68670;48.720;9.118;2024-01-30T04:58:07;98191.69;;;-0.85;100.00
79242;BME280;68670;48.720;9.118;2024-01-30T05:00:32;98192.28;;;-0.82;100.00
79242;BME280;68670;48.720;9.118;2024-01-30T05:02:57;98191.56;;;-0.84;100.00
79242;BME280;68670;48.720;9.118;2024-01-30T05:05:27;98195.25;;;-0.85;100.00
79242;BME280;68670;48.720;9.118;2024-01-30T05:07:54;98189.59;;;-0.82;100.00
79242;BME280;68670;48.720;9.118;2024-01-30T05:10:19;98196.66;;;-0.90;100.00
79242;BME280;68670;48.720;9.118;2024-01-30T05:12:49;98198.91;;;-0.86;100.00
79242;BME280;68670;48.720;9.118;2024-01-30T05:15:15;98198.47;;;-0.91;100.00
79242;BME280;68670;48.720;9.118;2024-01-30T05:17:40;98192.13;;;-0.99;100.00
79242;BME280;68670;48.720;9.118;2024-01-30T05:20:05;98196.06;;;-0.94;100.00
79242;BME280;68670;48.720;9.118;2024-01-30T05:22:34;98197.78;;;-1.03;100.00
79242;BME280;68670;48.720;9.118;2024-01-30T05:24:59;98193.25;;;-1.02;100.00
79242;BME280;68670;48.720;9.118;2024-01-30T05:27:25;98198.91;;;-1.05;100.00
79242;BME280;68670;48.720;9.118;2024-01-30T05:29:50;98188.16;;;-1.05;100.00
79242;BME280;68670;48.720;9.118;2024-01-30T05:32:15;98198.75;;;-1.04;100.00
79242;BME280;68670;48.720;9.118;2024-01-30T05:34:40;98187.31;;;-1.06;100.00
79242;BME280;68670;48.720;9.118;2024-01-30T05:37:06;98189.84;;;-1.04;100.00
79242;BME280;68670;48.720;9.118;2024-01-30T05:39:31;98202.44;;;-0.95;100.00
79242;BME280;68670;48.720;9.118;2024-01-30T05:41:58;98200.31;;;-1.01;100.00
79242;BME280;68670;48.720;9.118;2024-01-30T05:44:23;98205.84;;;-1.03;100.00
79242;BME280;68670;48.720;9.118;2024-01-30T05:46:51;98207.41;;;-1.00;100.00
79242;BME280;68670;48.720;9.118;2024-01-30T05:49:16;98205.97;;;-1.04;100.00
79242;BME280;68670;48.720;9.118;2024-01-30T05:51:41;98213.16;;;-1.14;100.00
79242;BME280;68670;48.720;9.118;2024-01-30T05:54:11;98207.66;;;-1.13;100.00
79242;BME280;68670;48.720;9.118;2024-01-30T05:56:36;98215.31;;;-1.08;100.00
79242;BME280;68670;48.720;9.118;2024-01-30T05:59:01;98213.06;;;-1.03;100.00
79242;BME280;68670;48.720;9.118;2024-01-30T06:01:27;98212.78;;;-1.00;100.00
79242;BME280;68670;48.720;9.118;2024-01-30T06:03:52;98209.97;;;-0.98;100.00
79242;BME280;68670;48.720;9.118;2024-01-30T06:06:17;98217.59;;;-0.94;100.00
79242;BME280;68670;48.720;9.118;2024-01-30T06:08:43;98214.03;;;-0.94;100.00
79242;BME280;68670;48.720;9.118;2024-01-30T06:11:11;98205.97;;;-1.04;100.00
79242;BME280;68670;48.720;9.118;2024-01-30T06:13:37;98209.38;;;-1.02;100.00
79242;BME280;68670;48.720;9.118;2024-01-30T06:16:05;98214.75;;;-1.02;100.00
79242;BME280;68670;48.720;9.118;2024-01-30T06:18:36;98202.16;;;-1.02;100.00
79242;BME280;68670;48.720;9.118;2024-01-30T06:21:02;98210.50;;;-0.95;100.00
79242;BME280;68670;48.720;9.118;2024-01-30T06:23:27;98207.09;;;-0.97;100.00
79242;BME280;68670;48.720;9.118;2024-01-30T06:25:52;98217.84;;;-1.07;100.00
79242;BME280;68670;48.720;9.118;2024-01-30T06:28:18;98220.25;;;-1.13;100.00
79242;BME280;68670;48.720;9.118;2024-01-30T06:30:43;98220.78;;;-1.19;100.00
79242;BME280;68670;48.720;9.118;2024-01-30T06:33:11;98222.03;;;-1.23;100.00
79242;BME280;68670;48.720;9.118;2024-01-30T06:35:39;98218.69;;;-1.16;100.00
79242;BME280;68670;48.720;9.118;2024-01-30T06:38:05;98217.56;;;-1.13;100.00
79242;BME280;68670;48.720;9.118;2024-01-30T06:40:31;98213.34;;;-1.06;100.00
79242;BME280;68670;48.720;9.118;2024-01-30T06:42:56;98207.69;;;-1.03;100.00
79242;BME280;68670;48.720;9.118;2024-01-30T06:45:21;98206.25;;;-1.07;100.00
79242;BME280;68670;48.720;9.118;2024-01-30T06:47:46;98214.47;;;-1.09;100.00
79242;BME280;68670;48.720;9.118;2024-01-30T06:50:14;98215.03;;;-1.05;100.00
79242;BME280;68670;48.720;9.118;2024-01-30T06:52:39;98214.03;;;-1.04;100.00
79242;BME280;68670;48.720;9.118;2024-01-30T06:55:05;98208.81;;;-1.06;100.00
79242;BME280;68670;48.720;9.118;2024-01-30T06:57:30;98209.78;;;-1.07;100.00
79242;BME280;68670;48.720;9.118;2024-01-30T06:59:55;98220.97;;;-1.11;100.00
79242;BME280;68670;48.720;9.118;2024-01-30T07:02:21;98216.47;;;-1.01;100.00
79242;BME280;68670;48.720;9.118;2024-01-30T07:04:48;98215.88;;;-0.95;100.00
79242;BME280;68670;48.720;9.118;2024-01-30T07:07:14;98215.88;;;-0.95;100.00
79242;BME280;68670;48.720;9.118;2024-01-30T07:09:40;98216.19;;;-0.98;100.00
79242;BME280;68670;48.720;9.118;2024-01-30T07:12:06;98223.53;;;-1.00;100.00
79242;BME280;68670;48.720;9.118;2024-01-30T07:14:34;98233.00;;;-0.96;100.00
79242;BME280;68670;48.720;9.118;2024-01-30T07:17:01;98232.88;;;-1.04;100.00
79242;BME280;68670;48.720;9.118;2024-01-30T07:19:29;98241.91;;;-1.05;100.00
79242;BME280;68670;48.720;9.118;2024-01-30T07:21:54;98241.66;;;-1.02;100.00
79242;BME280;68670;48.720;9.118;2024-01-30T07:24:20;98234.00;;;-0.97;100.00
79242;BME280;68670;48.720;9.118;2024-01-30T07:26:45;98232.91;;;-0.85;100.00
79242;BME280;68670;48.720;9.118;2024-01-30T07:29:10;98230.81;;;-0.72;100.00
79242;BME280;68670;48.720;9.118;2024-01-30T07:31:36;98228.41;;;-0.55;100.00
79242;BME280;68670;48.720;9.118;2024-01-30T07:34:01;98232.09;;;-0.47;100.00
79242;BME280;68670;48.720;9.118;2024-01-30T07:36:27;98230.22;;;-0.27;98.47
79242;BME280;68670;48.720;9.118;2024-01-30T07:38:52;98224.13;;;-0.29;98.99
79242;BME280;68670;48.720;9.118;2024-01-30T07:41:22;98224.41;;;-0.13;98.67
79242;BME280;68670;48.720;9.118;2024-01-30T07:43:49;98228.38;;;-0.17;98.54
79242;BME280;68670;48.720;9.118;2024-01-30T07:46:14;98228.38;;;-0.17;98.83
79242;BME280;68670;48.720;9.118;2024-01-30T07:48:40;98231.34;;;-0.01;97.92
79242;BME280;68670;48.720;9.118;2024-01-30T07:51:05;98230.38;;;-0.09;98.06
79242;BME280;68670;48.720;9.118;2024-01-30T07:53:30;98232.78;;;-0.16;98.25
79242;BME280;68670;48.720;9.118;2024-01-30T07:55:58;98244.22;;;0.06;97.96
79242;BME280;68670;48.720;9.118;2024-01-30T07:58:23;98240.81;;;0.04;98.48
79242;BME280;68670;48.720;9.118;2024-01-30T08:00:49;98237.13;;;0.05;98.21
79242;BME280;68670;48.720;9.118;2024-01-30T08:03:14;98234.13;;;0.27;98.42
79242;BME280;68670;48.720;9.118;2024-01-30T08:05:41;98244.31;;;0.33;98.57
79242;BME280;68670;48.720;9.118;2024-01-30T08:08:07;98238.78;;;0.34;98.15
79242;BME280;68670;48.720;9.118;2024-01-30T08:10:32;98236.19;;;0.52;97.90
79242;BME280;68670;48.720;9.118;2024-01-30T08:12:57;98240.78;;;0.70;98.32
79242;BME280;68670;48.720;9.118;2024-01-30T08:15:22;98234.09;;;0.74;98.03
79242;BME280;68670;48.720;9.118;2024-01-30T08:17:48;98240.19;;;1.03;97.74
79242;BME280;68670;48.720;9.118;2024-01-30T08:20:13;98240.28;;;1.11;97.79
79242;BME280;68670;48.720;9.118;2024-01-30T08:22:39;98237.56;;;1.39;96.36
79242;BME280;68670;48.720;9.118;2024-01-30T08:25:06;98226.31;;;1.79;94.18
79242;BME280;68670;48.720;9.118;2024-01-30T08:27:31;98218.84;;;2.16;92.44
79242;BME280;68670;48.720;9.118;2024-01-30T08:29:59;98225.00;;;2.52;91.35
79242;BME280;68670;48.720;9.118;2024-01-30T08:32:24;98232.63;;;2.83;90.00
79242;BME280;68670;48.720;9.118;2024-01-30T08:34:50;98227.66;;;3.12;87.83
79242;BME280;68670;48.720;9.118;2024-01-30T08:37:17;98214.41;;;3.59;86.31
79242;BME280;68670;48.720;9.118;2024-01-30T08:39:43;98204.09;;;3.63;84.81
79242;BME280;68670;48.720;9.118;2024-01-30T08:42:09;98221.69;;;3.59;85.02
79242;BME280;68670;48.720;9.118;2024-01-30T08:44:34;98225.75;;;3.47;85.79
79242;BME280;68670;48.720;9.118;2024-01-30T08:46:59;98220.31;;;3.47;85.24
79242;BME280;68670;48.720;9.118;2024-01-30T08:49:25;98228.09;;;3.42;86.18
79242;BME280;68670;48.720;9.118;2024-01-30T08:51:50;98217.19;;;3.25;87.44
79242;BME280;68670;48.720;9.118;2024-01-30T08:54:15;98229.75;;;3.34;85.85
79242;BME280;68670;48.720;9.118;2024-01-30T08:56:41;98230.81;;;3.42;86.81
79242;BME280;68670;48.720;9.118;2024-01-30T08:59:06;98227.75;;;3.45;86.55
79242;BME280;68670;48.720;9.118;2024-01-30T09:01:31;98225.06;;;3.53;87.39
79242;BME280;68670;48.720;9.118;2024-01-30T09:03:57;98236.59;;;3.63;87.23
79242;BME280;68670;48.720;9.118;2024-01-30T09:06:24;98235.09;;;3.68;85.78
79242;BME280;68670;48.720;9.118;2024-01-30T09:08:53;98224.44;;;3.83;84.40
79242;BME280;68670;48.720;9.118;2024-01-30T09:11:18;98231.22;;;4.12;84.44
79242;BME280;68670;48.720;9.118;2024-01-30T09:13:43;98236.13;;;4.32;83.72
79242;BME280;68670;48.720;9.118;2024-01-30T09:16:11;98237.47;;;4.45;82.25
79242;BME280;68670;48.720;9.118;2024-01-30T09:18:36;98236.06;;;4.57;82.60
79242;BME280;68670;48.720;9.118;2024-01-30T09:21:02;98230.47;;;4.66;82.61
79242;BME280;68670;48.720;9.118;2024-01-30T09:23:30;98238.88;;;4.88;80.97
79242;BME280;68670;48.720;9.118;2024-01-30T09:25:58;98240.19;;;5.08;80.25
79242;BME280;68670;48.720;9.118;2024-01-30T09:28:25;98243.38;;;5.20;78.38
79242;BME280;68670;48.720;9.118;2024-01-30T09:30:53;98239.72;;;5.35;79.23
79242;BME280;68670;48.720;9.118;2024-01-30T09:33:21;98242.00;;;5.55;79.36
79242;BME280;68670;48.720;9.118;2024-01-30T09:35:46;98240.56;;;5.67;78.50
79242;BME280;68670;48.720;9.118;2024-01-30T09:38:14;98243.75;;;5.79;78.37
79242;BME280;68670;48.720;9.118;2024-01-30T09:40:41;98242.19;;;5.84;76.27
79242;BME280;68670;48.720;9.118;2024-01-30T09:43:07;98232.97;;;5.85;77.62
79242;BME280;68670;48.720;9.118;2024-01-30T09:45:33;98238.59;;;6.15;74.15
79242;BME280;68670;48.720;9.118;2024-01-30T09:48:02;98238.19;;;6.18;75.74
79242;BME280;68670;48.720;9.118;2024-01-30T09:50:32;98237.41;;;6.32;74.96
79242;BME280;68670;48.720;9.118;2024-01-30T09:52:59;98247.13;;;6.49;73.11
79242;BME280;68670;48.720;9.118;2024-01-30T09:55:25;98244.78;;;6.61;74.63
79242;BME280;68670;48.720;9.118;2024-01-30T09:57:51;98242.78;;;6.78;72.74
79242;BME280;68670;48.720;9.118;2024-01-30T10:00:18;98246.16;;;6.94;72.14
79242;BME280;68670;48.720;9.118;2024-01-30T10:02:44;98249.56;;;7.11;71.47
79242;BME280;68670;48.720;9.118;2024-01-30T10:05:11;98250.06;;;7.51;64.76
79242;BME280;68670;48.720;9.118;2024-01-30T10:07:50;98236.78;;;7.98;60.04
79242;BME280;68670;48.720;9.118;2024-01-30T10:10:15;98237.22;;;8.23;58.97
79242;BME280;68670;48.720;9.118;2024-01-30T10:12:42;98238.09;;;8.45;58.12
79242;BME280;68670;48.720;9.118;2024-01-30T10:15:08;98235.47;;;8.58;57.76
79242;BME280;68670;48.720;9.118;2024-01-30T10:17:37;98228.00;;;8.67;56.34
79242;BME280;68670;48.720;9.118;2024-01-30T10:20:04;98239.06;;;8.87;55.70
79242;BME280;68670;48.720;9.118;2024-01-30T10:22:30;98229.41;;;8.91;56.34
79242;BME280;68670;48.720;9.118;2024-01-30T10:25:00;98233.75;;;9.06;55.90
79242;BME280;68670;48.720;9.118;2024-01-30T10:27:28;98231.59;;;9.02;56.37
79242;BME280;68670;48.720;9.118;2024-01-30T10:30:00;98226.97;;;9.02;55.48
79242;BME280;68670;48.720;9.118;2024-01-30T10:32:25;98227.66;;;9.11;55.70
79242;BME280;68670;48.720;9.118;2024-01-30T10:34:51;98227.88;;;9.16;55.57
79242;BME280;68670;48.720;9.118;2024-01-30T10:37:17;98221.13;;;9.12;55.05
79242;BME280;68670;48.720;9.118;2024-01-30T10:39:45;98223.72;;;9.20;55.56
79242;BME280;68670;48.720;9.118;2024-01-30T10:42:15;98227.13;;;9.29;54.53
79242;BME280;68670;48.720;9.118;2024-01-30T10:45:08;98222.50;;;9.29;54.37
79242;BME280;68670;48.720;9.118;2024-01-30T10:47:40;98219.38;;;9.32;55.39
79242;BME280;68670;48.720;9.118;2024-01-30T10:50:07;98228.22;;;9.34;54.71
79242;BME280;68670;48.720;9.118;2024-01-30T10:52:36;98215.44;;;9.41;54.68
79242;BME280;68670;48.720;9.118;2024-01-30T10:55:04;98222.16;;;9.46;54.92
79242;BME280;68670;48.720;9.118;2024-01-30T10:57:34;98214.66;;;9.61;53.77
79242;BME280;68670;48.720;9.118;2024-01-30T11:00:00;98214.66;;;9.61;54.18
79242;BME280;68670;48.720;9.118;2024-01-30T11:02:30;98208.38;;;9.67;54.09
79242;BME280;68670;48.720;9.118;2024-01-30T11:04:59;98207.97;;;9.76;52.82
79242;BME280;68670;48.720;9.118;2024-01-30T11:07:30;98222.31;;;9.85;53.30
79242;BME280;68670;48.720;9.118;2024-01-30T11:10:05;98202.56;;;9.96;52.84
79242;BME280;68670;48.720;9.118;2024-01-30T11:12:32;98207.38;;;9.94;52.71
79242;BME280;68670;48.720;9.118;2024-01-30T11:15:05;98201.72;;;10.02;52.55
79242;BME280;68670;48.720;9.118;2024-01-30T11:17:45;98207.22;;;10.02;52.80
79242;BME280;68670;48.720;9.118;2024-01-30T11:20:12;98209.31;;;10.00;52.56
79242;BME280;68670;48.720;9.118;2024-01-30T11:22:47;98202.38;;;10.04;52.83
79242;BME280;68670;48.720;9.118;2024-01-30T11:25:14;98218.16;;;10.02;52.88
79242;BME280;68670;48.720;9.118;2024-01-30T11:27:41;98200.88;;;10.08;52.76
79242;BME280;68670;48.720;9.118;2024-01-30T11:30:07;98206.78;;;10.19;52.14
79242;BME280;68670;48.720;9.118;2024-01-30T11:32:33;98194.63;;;10.21;52.11
79242;BME280;68670;48.720;9.118;2024-01-30T11:35:03;98195.00;;;10.18;52.82
79242;BME280;68670;48.720;9.118;2024-01-30T11:37:36;98203.88;;;10.40;51.46
79242;BME280;68670;48.720;9.118;2024-01-30T11:40:04;98206.63;;;10.40;52.33
79242;BME280;68670;48.720;9.118;2024-01-30T11:42:29;98206.03;;;10.38;51.73
79242;BME280;68670;48.720;9.118;2024-01-30T11:44:55;98202.66;;;10.36;51.91
79242;BME280;68670;48.720;9.118;2024-01-30T11:47:20;98206.03;;;10.38;52.21
79242;BME280;68670;48.720;9.118;2024-01-30T11:49:45;98196.31;;;10.42;52.43
79242;BME280;68670;48.720;9.118;2024-01-30T11:52:11;98192.31;;;10.44;51.87
79242;BME280;68670;48.720;9.118;2024-01-30T11:54:39;98190.84;;;10.42;51.86
79242;BME280;68670;48.720;9.118;2024-01-30T11:57:07;98182.41;;;10.50;52.57
79242;BME280;68670;48.720;9.118;2024-01-30T11:59:32;98186.22;;;10.62;51.54
79242;BME280;68670;48.720;9.118;2024-01-30T12:01:57;98186.22;;;10.62;51.31
79242;BME280;68670;48.720;9.118;2024-01-30T12:04:23;98174.41;;;10.55;50.98
79242;BME280;68670;48.720;9.118;2024-01-30T12:06:51;98182.00;;;10.60;51.01
79242;BME280;68670;48.720;9.118;2024-01-30T12:09:17;98179.03;;;10.61;51.59
79242;BME280;68670;48.720;9.118;2024-01-30T12:11:48;98176.94;;;10.63;51.26
79242;BME280;68670;48.720;9.118;2024-01-30T12:14:18;98172.47;;;10.75;51.59
79242;BME280;68670;48.720;9.118;2024-01-30T12:16:48;98163.88;;;10.72;51.19
79242;BME280;68670;48.720;9.118;2024-01-30T12:19:24;98166.78;;;10.77;51.57
79242;BME280;68670;48.720;9.118;2024-01-30T12:21:59;98162.97;;;10.85;51.73
79242;BME280;68670;48.720;9.118;2024-01-30T12:24:28;98161.31;;;10.84;51.32
79242;BME280;68670;48.720;9.118;2024-01-30T12:26:59;98162.56;;;10.88;51.33
79242;BME280;68670;48.720;9.118;2024-01-30T12:29:25;98148.22;;;10.86;51.24
79242;BME280;68670;48.720;9.118;2024-01-30T12:31:55;98153.28;;;10.89;50.93
79242;BME280;68670;48.720;9.118;2024-01-30T12:34:21;98152.84;;;10.98;50.49
79242;BME280;68670;48.720;9.118;2024-01-30T12:36:50;98148.19;;;10.99;50.73
79242;BME280;68670;48.720;9.118;2024-01-30T12:39:16;98148.78;;;11.14;50.51
79242;BME280;68670;48.720;9.118;2024-01-30T12:41:41;98148.94;;;11.26;50.20
79242;BME280;68670;48.720;9.118;2024-01-30T12:44:07;98153.53;;;11.38;49.72
79242;BME280;68670;48.720;9.118;2024-01-30T12:46:34;98145.91;;;11.40;49.66
79242;BME280;68670;48.720;9.118;2024-01-30T12:49:02;98136.63;;;11.41;48.95
79242;BME280;68670;48.720;9.118;2024-01-30T12:51:28;98145.72;;;11.42;49.37
79242;BME280;68670;48.720;9.118;2024-01-30T12:53:53;98144.25;;;11.39;49.40
79242;BME280;68670;48.720;9.118;2024-01-30T12:56:18;98153.09;;;11.41;48.51
79242;BME280;68670;48.720;9.118;2024-01-30T12:58:46;98151.38;;;11.47;48.57